IOM weather

Isle of Man Airport
Castletown, Isle of Man

Public forecast

Using degrees Celsius for public forecast. Weather courtesy of forecast.io.

METAR (pilot weather report)

Retrieved 2019/07/18 19:20 UTC (0 seconds ago):

EGNS 181920Z 22010KT 9999 FEW025 16/13 Q1008 NOSIG

TAF (pilot weather forecast)

Forecast is more than 12 hours old.

Retrieved 2017/03/09 09:27 UTC (2 years ago):

TAF TAF EGNS 090800Z 0909/0921 29012KT 9999 SCT018